Time;durP1;ratioP1;P1;durP2;ratioP2;P2;SDS_P1;SDS_P2;PMS_P1;PMS_P2;Temp;Humidity;BMP_temperature;BMP_pressure;BME280_temperature;BME280_humidity;BME280_pressure;Samples;Min_cycle;Max_cycle;Signal;HPM_P1;HPM_P2
2021/07/23 00:01:04;;;;;;;8.63;5.63;;;15.80;97.60;;;;;;6130300;23;20441;-74
2021/07/23 00:03:34;;;;;;;6.00;5.40;;;15.70;97.60;;;;;;6130635;23;20881;-75
2021/07/23 00:06:02;;;;;;;7.07;6.07;;;15.70;97.60;;;;;;6167004;23;20463;-75
2021/07/23 00:08:30;;;;;;;6.10;5.50;;;15.60;97.60;;;;;;6166980;23;20402;-74
2021/07/23 00:10:59;;;;;;;8.77;6.00;;;15.60;97.70;;;;;;6166496;23;20441;-75
2021/07/23 00:13:27;;;;;;;5.97;5.47;;;15.60;97.70;;;;;;6167230;23;20428;-75
2021/07/23 00:15:55;;;;;;;5.60;5.10;;;15.50;97.70;;;;;;6157709;23;20515;-75
2021/07/23 00:18:23;;;;;;;5.50;5.10;;;15.50;97.80;;;;;;6130405;23;20785;-75
2021/07/23 00:20:52;;;;;;;5.90;5.40;;;15.50;97.80;;;;;;6130261;23;20509;-74
2021/07/23 00:23:21;;;;;;;8.27;5.38;;;15.50;97.90;;;;;;6166465;23;20386;-75
2021/07/23 00:25:49;;;;;;;5.63;5.13;;;15.40;97.90;;;;;;6130443;23;20178;-75
2021/07/23 00:28:17;;;;;;;5.87;5.30;;;15.40;97.90;;;;;;6130513;23;20538;-75
2021/07/23 00:30:45;;;;;;;5.07;4.57;;;15.40;98.00;;;;;;6166736;23;20821;-75
2021/07/23 00:33:13;;;;;;;6.33;5.37;;;15.40;98.00;;;;;;6130230;23;20411;-74
2021/07/23 00:35:42;;;;;;;6.93;5.70;;;15.30;98.10;;;;;;6165286;23;20425;-75
2021/07/23 00:38:12;;;;;;;6.43;5.73;;;15.50;98.80;;;;;;6166433;23;20168;-75
2021/07/23 00:40:44;;;;;;;6.40;5.37;;;15.40;98.60;;;;;;6130352;23;20416;-74
2021/07/23 00:43:12;;;;;;;7.90;7.13;;;15.40;98.60;;;;;;6130644;23;20390;-74
2021/07/23 00:45:41;;;;;;;5.80;5.30;;;15.30;98.50;;;;;;6166370;23;20429;-74
2021/07/23 00:48:09;;;;;;;7.13;5.87;;;15.30;98.50;;;;;;6130553;23;20418;-74
2021/07/23 00:50:37;;;;;;;6.83;6.20;;;15.30;98.60;;;;;;6130012;23;20448;-75
2021/07/23 00:53:09;;;;;;;6.60;6.00;;;15.30;98.60;;;;;;6131333;23;20396;-75
2021/07/23 00:55:41;;;;;;;8.63;6.17;;;15.20;98.60;;;;;;6130188;23;20430;-74
2021/07/23 00:58:10;;;;;;;7.97;6.60;;;15.30;98.60;;;;;;6130234;23;20463;-74
2021/07/23 01:00:39;;;;;;;6.60;6.00;;;15.20;98.60;;;;;;6130200;23;20415;-74
2021/07/23 01:03:09;;;;;;;6.37;5.77;;;15.20;98.70;;;;;;6130171;23;20418;-75
2021/07/23 01:05:38;;;;;;;7.37;6.60;;;15.20;98.70;;;;;;6129874;23;20879;-74
2021/07/23 01:08:07;;;;;;;7.20;6.00;;;15.20;98.70;;;;;;6166379;23;20464;-75
2021/07/23 01:10:40;;;;;;;8.17;6.20;;;15.20;98.80;;;;;;6129703;23;20426;-74
2021/07/23 01:13:17;;;;;;;7.53;6.70;;;15.20;98.90;;;;;;6130045;23;20414;-75
2021/07/23 01:15:46;;;;;;;6.50;5.90;;;15.10;98.80;;;;;;6129945;23;20954;-74
2021/07/23 01:18:15;;;;;;;7.00;6.30;;;15.10;98.90;;;;;;6130098;23;20412;-74
2021/07/23 01:20:51;;;;;;;6.20;5.60;;;15.10;98.90;;;;;;6156785;23;20915;-74
2021/07/23 01:23:28;;;;;;;7.70;6.90;;;15.10;99.00;;;;;;6130137;23;20406;-72
2021/07/23 01:25:59;;;;;;;6.90;5.80;;;15.10;99.10;;;;;;6129926;23;20392;-73
2021/07/23 01:28:32;;;;;;;7.07;6.37;;;15.10;99.10;;;;;;6130325;23;20389;-74
2021/07/23 01:31:06;;;;;;;6.53;5.93;;;15.10;99.10;;;;;;6129554;23;20477;-75
2021/07/23 01:33:39;;;;;;;6.90;6.30;;;15.10;99.20;;;;;;6129896;23;20447;-72
2021/07/23 01:36:09;;;;;;;8.40;7.50;;;15.10;99.30;;;;;;6130329;23;20390;-72
2021/07/23 01:38:47;;;;;;;7.27;6.67;;;15.10;99.30;;;;;;6166206;23;20425;-72
2021/07/23 01:41:16;;;;;;;8.33;6.30;;;15.00;99.30;;;;;;6129683;23;20438;-72
2021/07/23 01:43:46;;;;;;;7.77;6.90;;;15.10;99.40;;;;;;6129838;23;20780;-72
2021/07/23 01:46:14;;;;;;;7.00;6.30;;;15.00;99.40;;;;;;6129662;23;20430;-72
2021/07/23 01:49:04;;;;;;;6.82;6.00;;;15.00;99.50;;;;;;6130399;23;20430;-72
2021/07/23 01:51:36;;;;;;;7.17;6.57;;;15.10;99.80;;;;;;6165879;23;20201;-72
2021/07/23 01:54:11;;;;;;;6.40;5.80;;;15.10;99.80;;;;;;6129734;23;20394;-72
2021/07/23 01:56:44;;;;;;;6.73;6.13;;;15.10;99.80;;;;;;6165695;23;20863;-72
2021/07/23 01:59:15;;;;;;;8.18;7.07;;;15.10;99.80;;;;;;6128856;23;20980;-72
2021/07/23 02:01:44;;;;;;;8.73;6.73;;;15.10;99.90;;;;;;6129409;23;20237;-72
2021/07/23 02:04:24;;;;;;;7.23;6.53;;;15.10;99.90;;;;;;6130630;23;20389;-72
2021/07/23 02:06:53;;;;;;;7.20;6.50;;;15.10;99.90;;;;;;6129691;23;20464;-72
2021/07/23 02:09:24;;;;;;;7.37;6.73;;;15.10;99.90;;;;;;6129610;23;20789;-72
2021/07/23 02:11:56;;;;;;;8.10;6.60;;;15.10;99.90;;;;;;6165564;23;20452;-72
2021/07/23 02:14:35;;;;;;;9.33;6.97;;;15.10;99.90;;;;;;6129741;23;20424;-73
2021/07/23 02:17:05;;;;;;;7.30;6.63;;;15.10;99.90;;;;;;6130531;23;20755;-72
2021/07/23 02:19:33;;;;;;;7.90;7.20;;;15.10;99.90;;;;;;6129531;23;20422;-72
2021/07/23 02:22:13;;;;;;;8.23;7.43;;;15.10;99.90;;;;;;6131201;23;20420;-72
2021/07/23 02:24:42;;;;;;;7.50;6.73;;;15.10;99.90;;;;;;6131501;23;20423;-72
2021/07/23 02:27:15;;;;;;;7.47;6.77;;;15.10;99.90;;;;;;6131887;23;20424;-72
2021/07/23 02:29:50;;;;;;;11.33;7.43;;;15.20;99.90;;;;;;6131416;23;20394;-72
2021/07/23 02:32:21;;;;;;;6.97;6.37;;;15.10;99.90;;;;;;6131343;23;20490;-72
2021/07/23 02:34:49;;;;;;;8.03;7.33;;;15.20;99.90;;;;;;6167416;23;20443;-72
2021/07/23 02:37:17;;;;;;;7.60;7.00;;;15.20;99.90;;;;;;6167725;23;20722;-72
2021/07/23 02:39:48;;;;;;;9.77;8.07;;;15.20;99.90;;;;;;6131335;23;20426;-72
2021/07/23 02:42:16;;;;;;;9.03;7.30;;;15.20;99.90;;;;;;6131200;23;20522;-72
2021/07/23 02:44:46;;;;;;;7.83;6.67;;;15.20;99.90;;;;;;6132262;23;20391;-72
2021/07/23 02:47:15;;;;;;;8.70;7.90;;;15.20;99.90;;;;;;6131378;23;20426;-72
2021/07/23 02:49:44;;;;;;;8.90;8.10;;;15.30;99.90;;;;;;6167268;23;20926;-72
2021/07/23 02:52:13;;;;;;;8.20;7.40;;;15.30;99.90;;;;;;6130884;23;20426;-72
2021/07/23 02:54:47;;;;;;;9.30;8.03;;;15.30;99.90;;;;;;6167501;23;20389;-72
2021/07/23 02:57:17;;;;;;;8.43;7.60;;;15.30;99.90;;;;;;6131332;23;20439;-72
2021/07/23 02:59:47;;;;;;;9.03;7.33;;;15.30;99.90;;;;;;6167268;23;20380;-72
2021/07/23 03:02:17;;;;;;;8.77;8.07;;;15.30;99.90;;;;;;6131101;23;20438;-72
2021/07/23 03:04:46;;;;;;;8.07;7.30;;;15.30;99.90;;;;;;6157568;23;20451;-72
2021/07/23 03:07:15;;;;;;;7.97;7.20;;;15.40;99.90;;;;;;6131159;23;20419;-72
2021/07/23 03:09:48;;;;;;;8.40;7.60;;;15.30;99.90;;;;;;6131107;23;20390;-72
2021/07/23 03:12:17;;;;;;;8.80;8.00;;;15.40;99.90;;;;;;6130957;23;20978;-72
2021/07/23 03:14:52;;;;;;;9.03;8.20;;;15.40;99.90;;;;;;6130957;23;20751;-72
2021/07/23 03:17:23;;;;;;;9.93;8.93;;;15.40;99.90;;;;;;6131125;23;20420;-72
2021/07/23 03:19:56;;;;;;;9.23;8.37;;;15.40;99.90;;;;;;6130733;23;20547;-72
2021/07/23 03:22:28;;;;;;;9.13;8.20;;;15.40;99.90;;;;;;6130848;23;20979;-72
2021/07/23 03:24:57;;;;;;;10.00;9.10;;;15.40;99.90;;;;;;6167324;23;20371;-72
2021/07/23 03:27:45;;;;;;;9.70;8.70;;;15.40;99.90;;;;;;6154033;23;20472;-72
2021/07/23 03:30:19;;;;;;;8.83;7.83;;;15.40;99.90;;;;;;6130873;23;20690;-72
2021/07/23 03:32:47;;;;;;;8.60;7.80;;;15.40;99.90;;;;;;6166450;23;20388;-72
2021/07/23 03:35:15;;;;;;;8.80;7.90;;;15.40;99.90;;;;;;6131130;23;20397;-72
2021/07/23 03:37:48;;;;;;;9.40;8.43;;;15.40;99.90;;;;;;6157224;23;20365;-73
2021/07/23 03:40:24;;;;;;;10.30;8.60;;;15.40;99.90;;;;;;6166949;23;20764;-72
2021/07/23 03:42:55;;;;;;;9.03;8.10;;;15.40;99.90;;;;;;6131146;23;20898;-72
2021/07/23 03:45:27;;;;;;;9.57;8.67;;;15.40;99.90;;;;;;6130914;23;20469;-72
2021/07/23 03:48:09;;;;;;;10.17;9.17;;;15.40;99.90;;;;;;6167335;23;20434;-72
2021/07/23 03:50:42;;;;;;;8.77;7.90;;;15.50;99.90;;;;;;6130650;23;20542;-72
2021/07/23 03:53:13;;;;;;;9.93;8.40;;;15.40;99.90;;;;;;6167565;23;20885;-73
2021/07/23 03:56:10;;;;;;;8.73;7.93;;;15.40;99.90;;;;;;6130744;23;20730;-72
2021/07/23 03:58:41;;;;;;;8.57;7.87;;;15.40;99.90;;;;;;6130736;23;20426;-72
2021/07/23 04:01:13;;;;;;;9.63;8.50;;;15.40;99.90;;;;;;6166312;23;20418;-72
2021/07/23 04:03:46;;;;;;;8.50;7.70;;;15.40;99.90;;;;;;6131379;23;20385;-72
2021/07/23 04:06:17;;;;;;;9.83;8.97;;;15.40;99.90;;;;;;6130524;23;20760;-72
2021/07/23 04:08:46;;;;;;;10.13;9.20;;;15.40;99.90;;;;;;6130572;23;20483;-72
2021/07/23 04:11:28;;;;;;;10.90;8.90;;;15.40;99.90;;;;;;6130794;23;20590;-72
2021/07/23 04:14:00;;;;;;;10.53;9.50;;;15.40;99.90;;;;;;6130949;23;20413;-72
2021/07/23 04:16:28;;;;;;;10.33;9.30;;;15.50;99.90;;;;;;6130489;23;20942;-72
2021/07/23 04:39:24;;;;;;;11.37;9.40;;;15.50;99.90;;;;;;5842792;24;20425;-82
2021/07/23 04:41:58;;;;;;;11.07;9.87;;;15.50;99.90;;;;;;5968679;24;20416;-83
2021/07/23 04:44:31;;;;;;;11.50;9.00;;;15.60;99.90;;;;;;6125236;23;20430;-83
2021/07/23 04:47:05;;;;;;;9.70;8.50;;;15.60;99.90;;;;;;6140142;23;20420;-82
2021/07/23 04:49:39;;;;;;;11.00;9.57;;;15.60;99.90;;;;;;6141315;23;20428;-83
2021/07/23 04:52:42;;;;;;;12.43;8.97;;;15.60;99.90;;;;;;6140605;23;20449;-82
2021/07/23 04:59:47;;;;;;;11.37;8.50;;;15.80;99.90;;;;;;6128026;23;20183;-83
2021/07/23 05:51:10;;;;;;;11.37;10.10;;;16.40;99.90;;;;;;5957448;23;20420;-83
2021/07/23 05:53:39;;;;;;;13.80;12.30;;;16.40;99.90;;;;;;6184260;23;20953;-82
2021/07/23 05:56:11;;;;;;;13.37;11.17;;;16.40;99.90;;;;;;6204544;23;20944;-83
2021/07/23 05:58:41;;;;;;;12.23;9.93;;;16.40;99.90;;;;;;6204340;23;20441;-82
2021/07/23 06:01:17;;;;;;;13.50;11.40;;;16.40;99.90;;;;;;6204880;23;20868;-83
2021/07/23 06:07:54;;;;;;;14.03;11.50;;;16.50;99.90;;;;;;5947283;24;20425;-80
2021/07/23 06:10:23;;;;;;;14.83;12.20;;;16.50;99.90;;;;;;6043315;23;20413;-80
2021/07/23 06:12:52;;;;;;;14.77;13.13;;;16.60;99.90;;;;;;6248609;22;20459;-80
2021/07/23 06:15:20;;;;;;;16.00;11.10;;;16.60;99.90;;;;;;6297248;22;20181;-81
2021/07/23 06:17:48;;;;;;;14.37;11.70;;;16.70;99.90;;;;;;6325040;22;20385;-80
2021/07/23 06:20:17;;;;;;;14.03;12.53;;;16.70;99.90;;;;;;6297435;22;20414;-80
2021/07/23 06:22:47;;;;;;;16.97;14.20;;;16.70;99.90;;;;;;6295905;22;20419;-79
2021/07/23 06:25:20;;;;;;;15.90;11.73;;;16.80;99.90;;;;;;6297616;22;20418;-80
2021/07/23 06:27:51;;;;;;;16.97;11.60;;;16.90;99.90;;;;;;6324848;22;20391;-80
2021/07/23 06:30:19;;;;;;;12.17;10.87;;;16.90;99.90;;;;;;6297023;22;20415;-80
2021/07/23 06:32:47;;;;;;;11.80;10.57;;;16.90;99.90;;;;;;6298069;22;20386;-80
2021/07/23 06:35:15;;;;;;;15.33;11.17;;;17.00;99.90;;;;;;6297946;22;20425;-81
2021/07/23 06:37:44;;;;;;;13.20;11.07;;;17.00;99.90;;;;;;6288699;22;20417;-80
2021/07/23 06:40:13;;;;;;;14.57;10.47;;;17.00;99.90;;;;;;6285177;22;20395;-80
2021/07/23 06:42:43;;;;;;;14.23;11.03;;;17.00;99.90;;;;;;6286118;22;20417;-80
2021/07/23 06:45:12;;;;;;;14.00;10.50;;;17.10;99.90;;;;;;6285832;22;20420;-80
2021/07/23 06:47:41;;;;;;;12.23;10.37;;;17.10;99.90;;;;;;6285595;22;20441;-80
2021/07/23 06:50:13;;;;;;;11.83;10.20;;;17.20;99.90;;;;;;6296805;22;20398;-80
2021/07/23 06:52:41;;;;;;;13.23;10.27;;;17.20;99.90;;;;;;6284774;22;20447;-80
2021/07/23 06:55:12;;;;;;;14.40;10.90;;;17.30;99.90;;;;;;6284794;22;20424;-80
2021/07/23 06:57:41;;;;;;;14.13;10.27;;;17.30;99.90;;;;;;6296455;22;20404;-79
2021/07/23 07:00:17;;;;;;;11.73;9.23;;;17.40;99.90;;;;;;6286356;22;20401;-80
2021/07/23 07:02:46;;;;;;;15.33;12.53;;;17.40;99.90;;;;;;6286591;22;20784;-80
2021/07/23 07:05:14;;;;;;;12.00;10.13;;;17.50;99.90;;;;;;6285183;22;20409;-80
2021/07/23 07:07:42;;;;;;;14.03;10.70;;;17.50;99.90;;;;;;6285120;22;20444;-80
2021/07/23 07:10:11;;;;;;;11.00;9.10;;;17.60;99.90;;;;;;6284917;22;20409;-80
2021/07/23 07:12:49;;;;;;;12.50;10.60;;;17.70;99.90;;;;;;6284969;22;20417;-80
2021/07/23 07:15:17;;;;;;;15.57;10.60;;;17.70;99.90;;;;;;6285430;22;20470;-80
2021/07/23 07:17:45;;;;;;;12.17;9.53;;;17.80;99.90;;;;;;6285279;22;20476;-80
2021/07/23 07:20:16;;;;;;;10.47;9.23;;;17.90;99.90;;;;;;6296748;22;20488;-80
2021/07/23 07:22:46;;;;;;;17.00;9.90;;;17.90;99.90;;;;;;6284686;22;20472;-80
2021/07/23 07:25:16;;;;;;;9.87;8.97;;;17.90;99.90;;;;;;6282648;22;20401;-80
2021/07/23 07:27:46;;;;;;;9.63;7.93;;;18.00;99.90;;;;;;6285941;22;20425;-79
2021/07/23 07:30:15;;;;;;;11.17;9.80;;;18.00;99.90;;;;;;6296404;22;20386;-80
2021/07/23 07:32:43;;;;;;;10.53;8.90;;;18.00;99.90;;;;;;6286349;22;20413;-81
2021/07/23 07:35:12;;;;;;;10.68;9.32;;;18.10;99.90;;;;;;6294646;22;20478;-80
2021/07/23 07:37:42;;;;;;;10.97;8.50;;;18.10;99.90;;;;;;6285196;22;20175;-80
2021/07/23 07:40:12;;;;;;;13.30;9.00;;;18.20;99.90;;;;;;6285192;22;20448;-79
2021/07/23 07:42:41;;;;;;;11.02;9.88;;;18.10;99.90;;;;;;6284461;22;20740;-80
2021/07/23 07:45:12;;;;;;;9.43;8.43;;;18.10;99.90;;;;;;6286487;22;20166;-80
2021/07/23 07:47:40;;;;;;;12.77;8.87;;;18.10;99.90;;;;;;6296438;22;20409;-80
2021/07/23 07:50:10;;;;;;;10.50;9.40;;;18.10;99.90;;;;;;6283107;22;20505;-79
2021/07/23 07:52:38;;;;;;;10.43;8.47;;;18.00;99.90;;;;;;6283603;22;20414;-79
2021/07/23 07:55:07;;;;;;;9.83;8.83;;;18.00;99.90;;;;;;6284254;22;20424;-80
2021/07/23 07:57:35;;;;;;;13.53;10.60;;;18.00;99.90;;;;;;6284251;22;20888;-80
2021/07/23 08:00:04;;;;;;;11.93;9.20;;;18.00;99.90;;;;;;6285640;22;20431;-79
2021/07/23 08:02:42;;;;;;;11.73;9.23;;;18.00;99.90;;;;;;6286068;22;20477;-80
2021/07/23 08:05:15;;;;;;;11.70;10.07;;;18.00;99.90;;;;;;6285024;22;20452;-81
2021/07/23 08:07:45;;;;;;;13.20;10.50;;;18.00;99.90;;;;;;6284402;22;20462;-79
2021/07/23 08:10:15;;;;;;;12.57;10.20;;;18.00;99.90;;;;;;6295763;22;20400;-80
2021/07/23 08:12:44;;;;;;;14.63;11.50;;;18.00;99.90;;;;;;6283431;22;20405;-80
2021/07/23 08:15:16;;;;;;;13.40;12.00;;;17.90;99.90;;;;;;6283148;22;20405;-80
2021/07/23 08:17:46;;;;;;;12.77;10.93;;;17.90;99.90;;;;;;6284390;22;20817;-80
2021/07/23 08:20:15;;;;;;;14.00;11.20;;;17.90;99.90;;;;;;6283678;22;20774;-80
2021/07/23 08:22:43;;;;;;;14.87;11.87;;;17.90;99.90;;;;;;6295631;22;20402;-80
2021/07/23 08:25:12;;;;;;;12.93;11.53;;;18.00;99.90;;;;;;6283977;22;20934;-80
2021/07/23 08:27:41;;;;;;;13.17;11.63;;;18.00;99.90;;;;;;6283393;22;20436;-80
2021/07/23 08:30:11;;;;;;;12.83;10.37;;;18.00;99.90;;;;;;6284727;22;20440;-80
2021/07/23 08:32:41;;;;;;;14.40;11.50;;;18.00;99.90;;;;;;6284985;22;20409;-80
2021/07/23 08:35:13;;;;;;;12.20;10.70;;;18.10;99.90;;;;;;6283785;22;20800;-80
2021/07/23 08:37:41;;;;;;;12.40;11.10;;;18.10;99.90;;;;;;6283656;22;20420;-80
2021/07/23 08:40:10;;;;;;;14.67;11.20;;;18.10;99.90;;;;;;6283112;22;20406;-80
2021/07/23 08:42:41;;;;;;;13.10;11.80;;;18.10;99.90;;;;;;6283545;22;20419;-80
2021/07/23 08:45:10;;;;;;;12.83;11.50;;;18.10;99.90;;;;;;6283551;22;20439;-80
2021/07/23 08:47:38;;;;;;;15.53;13.87;;;18.10;99.90;;;;;;6283892;22;20467;-80
2021/07/23 08:50:11;;;;;;;16.70;12.43;;;18.10;99.90;;;;;;6285148;22;20404;-80
2021/07/23 08:52:43;;;;;;;17.80;13.70;;;18.10;99.90;;;;;;6285563;22;20416;-82
2021/07/23 08:55:14;;;;;;;14.93;13.30;;;18.10;99.90;;;;;;6295840;22;20378;-82
2021/07/23 08:57:43;;;;;;;16.93;13.77;;;18.10;99.90;;;;;;6286312;22;20409;-82
2021/07/23 09:00:13;;;;;;;13.80;12.40;;;18.10;99.90;;;;;;6283900;22;20793;-81
2021/07/23 09:02:52;;;;;;;14.20;11.60;;;18.10;99.90;;;;;;6284098;22;20409;-82
2021/07/23 09:05:29;;;;;;;14.73;13.00;;;18.10;99.90;;;;;;6283863;22;20467;-81
2021/07/23 09:08:00;;;;;;;13.20;11.37;;;18.20;99.90;;;;;;6284622;22;20437;-82
2021/07/23 09:10:30;;;;;;;11.63;10.37;;;18.20;99.90;;;;;;6286284;22;20417;-82
2021/07/23 09:13:01;;;;;;;12.70;9.17;;;18.20;99.90;;;;;;6284559;22;20422;-82
2021/07/23 09:15:33;;;;;;;11.07;9.90;;;18.20;99.90;;;;;;6284170;22;20433;-82
2021/07/23 09:18:27;;;;;;;10.77;9.30;;;18.20;99.90;;;;;;6283645;22;20492;-81
2021/07/23 09:20:58;;;;;;;10.37;9.27;;;18.20;99.90;;;;;;6284538;22;20939;-81
2021/07/23 09:23:32;;;;;;;10.47;9.40;;;18.30;99.90;;;;;;6285289;22;20955;-81
2021/07/23 09:26:15;;;;;;;9.97;8.97;;;18.30;99.90;;;;;;6297019;22;20389;-82
2021/07/23 09:28:45;;;;;;;11.20;8.40;;;18.40;99.90;;;;;;6285248;22;20425;-82
2021/07/23 09:31:22;;;;;;;10.20;9.20;;;18.40;99.90;;;;;;6283972;22;20437;-82
2021/07/23 09:33:54;;;;;;;8.80;7.83;;;18.40;99.90;;;;;;6285251;22;20488;-82
2021/07/23 09:36:27;;;;;;;9.60;8.63;;;18.50;99.90;;;;;;6284780;22;20503;-82
2021/07/23 09:39:19;;;;;;;10.43;8.73;;;18.50;99.90;;;;;;6283647;22;20420;-82
2021/07/23 09:42:04;;;;;;;7.80;6.87;;;18.60;99.90;;;;;;6285285;22;20444;-82
2021/07/23 09:44:34;;;;;;;7.60;6.90;;;18.60;99.90;;;;;;6296742;22;20492;-82
2021/07/23 09:47:04;;;;;;;9.17;7.20;;;18.70;99.90;;;;;;6286497;22;20413;-83
2021/07/23 10:04:47;;;;;;;8.37;7.57;;;18.90;99.90;;;;;;6024268;23;20176;-82
2021/07/23 10:07:19;;;;;;;8.10;5.83;;;19.00;99.90;;;;;;6136996;23;20417;-81
2021/07/23 10:09:54;;;;;;;8.55;7.65;;;19.00;99.90;;;;;;6195487;23;20414;-81
2021/07/23 10:12:25;;;;;;;8.17;7.03;;;19.10;99.90;;;;;;6197460;23;20192;-82
2021/07/23 10:14:54;;;;;;;8.63;6.80;;;19.20;99.90;;;;;;6200194;23;20456;-82
2021/07/23 10:17:23;;;;;;;8.20;7.37;;;19.20;99.90;;;;;;6199085;23;20542;-82
2021/07/23 10:19:57;;;;;;;8.57;7.67;;;19.20;99.90;;;;;;6199583;23;20473;-81
2021/07/23 10:22:41;;;;;;;9.27;8.33;;;19.20;99.90;;;;;;6244591;22;20468;-82
2021/07/23 10:25:11;;;;;;;8.70;7.80;;;19.20;99.90;;;;;;6285039;22;20401;-82
2021/07/23 10:27:43;;;;;;;9.47;8.60;;;19.30;99.90;;;;;;6285296;22;20429;-82
2021/07/23 10:30:35;;;;;;;8.70;7.90;;;19.30;99.90;;;;;;6285403;22;20790;-82
2021/07/23 10:33:06;;;;;;;8.37;7.57;;;19.30;99.90;;;;;;6285217;22;20721;-82
2021/07/23 10:35:41;;;;;;;7.87;7.07;;;19.30;99.90;;;;;;6287621;22;20409;-82
2021/07/23 10:38:21;;;;;;;10.20;8.20;;;19.30;99.90;;;;;;6292655;22;20779;-82
2021/07/23 10:40:49;;;;;;;10.53;9.00;;;19.30;99.90;;;;;;6294216;22;20462;-82
2021/07/23 10:43:44;;;;;;;10.00;9.10;;;19.30;99.90;;;;;;6292403;22;20502;-82
2021/07/23 10:46:12;;;;;;;11.70;9.70;;;19.30;99.90;;;;;;6319701;22;20389;-82
2021/07/23 10:48:48;;;;;;;9.57;8.03;;;19.30;99.90;;;;;;6328236;22;20432;-82
2021/07/23 10:51:52;;;;;;;10.13;7.97;;;19.30;99.90;;;;;;6317519;22;20506;-82
2021/07/23 10:54:22;;;;;;;7.67;6.97;;;19.30;99.90;;;;;;6328514;22;20676;-82
2021/07/23 10:57:12;;;;;;;7.50;6.80;;;19.30;99.90;;;;;;6290766;22;20407;-82
2021/07/23 10:59:58;;;;;;;6.73;5.93;;;19.30;99.90;;;;;;6318487;22;20404;-82
2021/07/23 11:02:43;;;;;;;7.10;6.40;;;19.30;99.90;;;;;;6290413;22;20759;-82
2021/07/23 11:05:14;;;;;;;9.77;7.23;;;19.30;99.90;;;;;;6289667;22;20447;-82
2021/07/23 11:07:47;;;;;;;7.30;6.60;;;19.30;99.90;;;;;;6289430;22;20409;-82
2021/07/23 11:10:21;;;;;;;7.50;6.60;;;19.30;99.90;;;;;;6328013;22;20380;-82
2021/07/23 11:12:50;;;;;;;7.30;6.53;;;19.30;99.90;;;;;;6289402;22;20416;-82
2021/07/23 11:15:19;;;;;;;7.03;6.37;;;19.40;99.90;;;;;;6289664;22;20248;-82
2021/07/23 11:17:55;;;;;;;9.00;7.00;;;19.40;99.90;;;;;;6327328;22;20408;-82
2021/07/23 11:20:33;;;;;;;6.30;5.63;;;19.40;99.90;;;;;;6290009;22;20509;-82
2021/07/23 11:23:10;;;;;;;7.60;6.90;;;19.40;99.90;;;;;;6289344;22;20436;-84
2021/07/23 11:25:52;;;;;;;7.57;6.77;;;19.50;99.90;;;;;;6290425;22;20412;-82
2021/07/23 11:28:20;;;;;;;6.53;5.93;;;19.50;99.90;;;;;;6317130;22;20420;-82
2021/07/23 11:30:49;;;;;;;7.07;6.27;;;19.50;99.90;;;;;;6289522;22;20933;-82
2021/07/23 11:33:20;;;;;;;7.23;6.00;;;19.50;99.90;;;;;;6290306;22;20475;-82
2021/07/23 11:35:49;;;;;;;6.50;5.90;;;19.40;99.90;;;;;;6289637;22;20478;-82
2021/07/23 11:38:22;;;;;;;6.83;5.93;;;19.40;99.90;;;;;;6289562;22;20421;-82
2021/07/23 11:41:05;;;;;;;6.80;6.13;;;19.40;99.90;;;;;;6327209;22;20929;-82
2021/07/23 11:43:34;;;;;;;6.60;6.00;;;19.40;99.90;;;;;;6289917;22;20408;-82
2021/07/23 11:46:12;;;;;;;6.70;6.10;;;19.40;99.90;;;;;;6289146;22;20752;-82
2021/07/23 11:48:40;;;;;;;9.87;7.00;;;19.40;99.90;;;;;;6327402;22;20477;-82
2021/07/23 11:51:08;;;;;;;7.97;6.70;;;19.40;99.90;;;;;;6289320;22;20436;-81
2021/07/23 11:53:42;;;;;;;7.93;7.13;;;19.40;99.90;;;;;;6290255;22;20446;-82
2021/07/23 11:56:26;;;;;;;7.63;6.60;;;19.50;99.90;;;;;;6288779;22;20400;-82
2021/07/23 11:58:56;;;;;;;7.67;6.50;;;19.50;99.90;;;;;;6316918;22;20701;-82
2021/07/23 12:01:26;;;;;;;6.77;6.17;;;19.60;99.90;;;;;;6290125;22;20487;-82
2021/07/23 12:03:55;;;;;;;7.63;6.50;;;19.60;99.90;;;;;;6289593;22;20435;-82
2021/07/23 12:06:33;;;;;;;7.30;6.07;;;19.60;99.90;;;;;;6317190;22;20389;-82
2021/07/23 12:09:15;;;;;;;8.87;6.90;;;19.70;99.90;;;;;;6288998;22;20424;-82
2021/07/23 12:11:44;;;;;;;7.13;6.40;;;19.70;99.90;;;;;;6288347;22;20438;-82
2021/07/23 12:14:13;;;;;;;7.83;5.83;;;19.80;99.90;;;;;;6289089;22;20898;-82
2021/07/23 12:16:42;;;;;;;8.00;7.30;;;19.80;99.90;;;;;;6289202;22;20404;-82
2021/07/23 12:19:19;;;;;;;8.50;7.23;;;19.90;99.90;;;;;;6289193;22;20503;-82
2021/07/23 12:21:50;;;;;;;7.43;6.77;;;19.90;99.90;;;;;;6327001;22;20420;-81
2021/07/23 12:24:32;;;;;;;7.07;6.38;;;19.90;99.90;;;;;;6326905;22;20395;-82
2021/07/23 12:27:18;;;;;;;6.93;6.27;;;20.00;99.90;;;;;;6289211;22;20161;-82
2021/07/23 12:29:48;;;;;;;6.30;5.70;;;20.00;99.90;;;;;;6289397;22;20946;-82
2021/07/23 12:32:22;;;;;;;7.63;6.80;;;20.00;99.90;;;;;;6327366;22;20458;-82
2021/07/23 12:34:57;;;;;;;6.80;6.10;;;20.00;99.90;;;;;;6317527;22;20396;-82
2021/07/23 12:37:28;;;;;;;6.40;5.80;;;20.10;99.90;;;;;;6317085;22;20454;-81
2021/07/23 13:07:52;;;;;;;6.83;5.87;;;20.30;99.90;;;;;;6280663;22;20879;-73
2021/07/23 13:10:21;;;;;;;5.47;4.97;;;20.30;99.90;;;;;;6281144;22;20424;-73
2021/07/23 13:12:49;;;;;;;6.63;5.27;;;20.30;99.90;;;;;;6308335;22;20707;-74
2021/07/23 13:15:19;;;;;;;7.57;6.07;;;20.40;99.90;;;;;;6317752;22;20423;-74
2021/07/23 13:17:47;;;;;;;6.50;5.23;;;20.40;99.90;;;;;;6280091;22;20409;-73
2021/07/23 13:20:15;;;;;;;7.00;5.37;;;20.40;99.90;;;;;;6317580;22;20393;-73
2021/07/23 13:22:44;;;;;;;8.00;4.97;;;20.40;99.90;;;;;;6280007;22;20451;-73
2021/07/23 13:25:13;;;;;;;6.63;5.38;;;20.50;99.90;;;;;;6306336;22;20412;-74
2021/07/23 13:27:43;;;;;;;6.30;4.90;;;20.50;99.90;;;;;;6307717;22;20253;-73
2021/07/23 13:30:16;;;;;;;5.53;4.90;;;20.60;99.90;;;;;;6279593;22;20965;-73
2021/07/23 13:32:46;;;;;;;6.53;5.17;;;20.60;99.90;;;;;;6317427;22;20473;-73
2021/07/23 13:35:15;;;;;;;6.63;5.30;;;20.60;99.90;;;;;;6279740;22;20436;-73
2021/07/23 13:37:47;;;;;;;6.90;6.03;;;20.60;99.90;;;;;;6279781;22;20416;-73
2021/07/23 13:40:21;;;;;;;5.37;4.73;;;20.60;99.90;;;;;;6317804;22;20377;-72
2021/07/23 13:43:04;;;;;;;6.90;5.30;;;20.60;99.90;;;;;;6317807;22;20381;-73
2021/07/23 13:45:33;;;;;;;7.80;5.70;;;20.70;99.90;;;;;;6317886;22;20472;-73
2021/07/23 13:48:02;;;;;;;6.00;5.40;;;20.70;99.90;;;;;;6319329;22;20392;-73
2021/07/23 13:50:30;;;;;;;7.13;4.73;;;20.80;99.90;;;;;;6309469;22;20772;-73
2021/07/23 13:52:58;;;;;;;7.00;5.63;;;20.80;99.90;;;;;;6281615;22;20407;-73
2021/07/23 13:55:28;;;;;;;6.13;5.57;;;20.80;99.90;;;;;;6319609;22;20408;-73
2021/07/23 13:57:56;;;;;;;5.87;4.73;;;20.80;99.90;;;;;;6319949;22;20484;-73
2021/07/23 14:00:25;;;;;;;6.83;5.43;;;20.80;99.90;;;;;;6320105;22;20423;-73
2021/07/23 14:02:54;;;;;;;5.93;5.30;;;20.90;99.90;;;;;;6281710;22;20400;-73
2021/07/23 14:05:23;;;;;;;7.47;5.60;;;20.90;99.90;;;;;;6281754;22;20446;-73
2021/07/23 14:07:52;;;;;;;5.40;4.87;;;20.90;99.90;;;;;;6281788;22;20411;-73
2021/07/23 14:10:20;;;;;;;7.10;5.80;;;20.90;99.90;;;;;;6319544;22;20428;-73
2021/07/23 14:12:50;;;;;;;7.10;5.70;;;20.90;99.90;;;;;;6318564;22;20931;-73
2021/07/23 14:15:18;;;;;;;7.90;6.70;;;21.00;99.90;;;;;;6309196;22;20269;-73
2021/07/23 14:17:46;;;;;;;6.00;5.20;;;20.90;99.90;;;;;;6309015;22;20898;-73
2021/07/23 14:20:14;;;;;;;5.30;4.80;;;20.90;99.90;;;;;;6281674;22;20886;-73
2021/07/23 14:22:42;;;;;;;5.17;4.67;;;20.90;99.90;;;;;;6319426;22;20398;-74
2021/07/23 14:25:11;;;;;;;6.10;5.30;;;20.90;99.90;;;;;;6319347;22;20464;-73
2021/07/23 14:27:39;;;;;;;5.83;5.23;;;20.90;99.90;;;;;;6319579;22;20406;-73
2021/07/23 14:30:10;;;;;;;9.10;5.50;;;20.90;99.90;;;;;;6319379;22;20977;-73
2021/07/23 14:32:38;;;;;;;6.63;5.70;;;20.90;99.90;;;;;;6319743;22;20405;-73
2021/07/23 14:35:07;;;;;;;7.83;5.87;;;20.90;99.90;;;;;;6281200;22;20414;-73
2021/07/23 14:37:36;;;;;;;6.00;5.27;;;20.90;99.90;;;;;;6319874;22;20394;-73
2021/07/23 14:40:06;;;;;;;7.50;6.00;;;20.90;99.90;;;;;;6318945;22;20403;-73
2021/07/23 14:42:34;;;;;;;6.27;5.17;;;20.90;99.90;;;;;;6281286;22;20473;-73
2021/07/23 14:45:02;;;;;;;7.73;5.97;;;20.90;99.90;;;;;;6281303;22;20415;-73
2021/07/23 14:47:32;;;;;;;6.20;5.13;;;20.90;99.90;;;;;;6319780;22;20522;-73
2021/07/23 14:50:01;;;;;;;7.17;5.60;;;20.90;99.90;;;;;;6319164;22;20455;-73
2021/07/23 14:52:29;;;;;;;8.03;5.50;;;20.90;99.90;;;;;;6319133;22;20420;-73
2021/07/23 14:54:57;;;;;;;7.00;6.30;;;20.90;99.90;;;;;;6280953;22;20420;-73
2021/07/23 14:57:25;;;;;;;6.33;5.63;;;20.90;99.90;;;;;;6319967;22;20475;-72
2021/07/23 14:59:53;;;;;;;8.43;5.67;;;20.90;99.90;;;;;;6320214;22;20393;-72
2021/07/23 15:02:22;;;;;;;7.80;6.30;;;20.90;99.90;;;;;;6281087;22;20515;-73
2021/07/23 15:04:51;;;;;;;6.10;5.50;;;20.90;99.90;;;;;;6281223;22;20412;-73